Vallican, Canada
Current Conditions -  °F | °C
As of 12:41 PM on Monday 22 Dec 2014 (Local Time) from CYXC Reporting Station
Moderate Fog Moderate Fog  
Wind Chill: 28°   Ceiling: 300
Heat Index: 28°   Visibility: 0.25mi
Dew Point: 28°   Wind: 2mph
Humidity: 100%   Direction: NA
Pressure: 30.07"   Gusts: NA
Location:  49.57°N, 117.65°W
Report Text: CYXC 222041Z VRB02KT 1/4SM FZFG VV003 M02/M02 A3007 RMK FG8 SLP223
Loading
Personal Weather Stations






























Interactive Weather Map New forecast layout! Learn more

10-Day Weather Forecast

Advertisements
Track Severe Weather on mobile